Terminal Aerodrome Forecast
Issued by NWS Milwaukee/Sullivan, WI

Home | Current Version | Previous Version | Text Only | Print | Product List | Glossary On
Versions: 1 2 3 4 5 6 7 8 9 10 11 12 13 14 15 16 17 18 19 20 21
000
FTUS43 KMKX 051504 AAA
TAFMSN
TAF AMD
KMSN 051504Z 0515/0612 20005KT 2SM BR OVC004
     FM051800 19007KT P6SM OVC008
     FM052100 18008KT P6SM BKN012
     FM060000 17008KT P6SM BKN035
     FM060500 18008KT P6SM OVC030
     FM061100 19005KT P6SM OVC010=

USA.gov is the U.S. government's official web portal to all federal, state and local government web resources and services.